createdAt,value
2018-03-21T00:00:42.140Z,15.95
2018-03-21T00:03:16.529Z,17.03
2018-03-21T00:05:52.633Z,16.83
2018-03-21T00:08:27.630Z,18.27
2018-03-21T00:10:59.204Z,17.40
2018-03-21T00:13:31.249Z,16.97
2018-03-21T00:16:05.715Z,16.87
2018-03-21T00:18:36.163Z,16.37
2018-03-21T00:21:06.930Z,18.17
2018-03-21T00:23:36.671Z,19.00
2018-03-21T00:26:09.490Z,17.52
2018-03-21T00:28:39.856Z,17.24
2018-03-21T00:31:10.355Z,16.30
2018-03-21T00:33:44.834Z,16.13
2018-03-21T00:36:22.662Z,16.20
2018-03-21T00:38:57.475Z,18.77
2018-03-21T00:41:30.946Z,15.47
2018-03-21T00:44:04.513Z,15.10
2018-03-21T00:46:35.461Z,16.20
2018-03-21T00:49:14.672Z,15.84
2018-03-21T00:51:49.367Z,15.68
2018-03-21T00:54:21.091Z,14.87
2018-03-21T00:56:58.134Z,15.55
2018-03-21T00:59:29.794Z,14.97
2018-03-21T01:02:06.916Z,15.53
2018-03-21T01:04:37.982Z,14.87
2018-03-21T01:07:11.863Z,15.43
2018-03-21T01:09:41.775Z,15.80
2018-03-21T01:12:16.655Z,14.52
2018-03-21T01:14:46.919Z,15.82
2018-03-21T01:17:20.782Z,15.20
2018-03-21T01:19:52.370Z,15.60
2018-03-21T01:22:24.418Z,15.57
2018-03-21T01:24:55.705Z,16.20
2018-03-21T01:27:28.273Z,16.43
2018-03-21T01:30:01.028Z,17.37
2018-03-21T01:32:33.227Z,16.93
2018-03-21T01:35:03.683Z,16.57
2018-03-21T01:37:36.368Z,15.90
2018-03-21T01:40:10.932Z,15.33
2018-03-21T01:42:43.334Z,17.00
2018-03-21T01:45:14.479Z,17.87
2018-03-21T01:47:47.161Z,17.55
2018-03-21T01:50:20.001Z,16.00
2018-03-21T01:53:13.297Z,16.90
2018-03-21T01:55:43.652Z,16.17
2018-03-21T01:58:16.974Z,16.07
2018-03-21T02:00:46.822Z,14.47
2018-03-21T02:03:20.888Z,14.60
2018-03-21T02:05:52.347Z,13.50
2018-03-21T02:08:25.078Z,14.43
2018-03-21T02:10:57.213Z,15.27
2018-03-21T02:13:33.710Z,14.83
2018-03-21T02:16:09.638Z,13.70
2018-03-21T02:18:43.428Z,13.00
2018-03-21T02:21:19.257Z,13.80
2018-03-21T02:23:52.511Z,14.07
2018-03-21T02:26:25.530Z,13.23
2018-03-21T02:28:59.458Z,13.23
2018-03-21T02:31:32.581Z,13.47
2018-03-21T02:34:10.602Z,14.23
2018-03-21T02:36:43.377Z,13.03
2018-03-21T02:39:15.311Z,13.67
2018-03-21T02:41:49.470Z,13.83
2018-03-21T02:44:20.611Z,14.45
2018-03-21T02:46:52.802Z,15.20
2018-03-21T02:49:26.837Z,15.25
2018-03-21T02:51:59.004Z,16.17
2018-03-21T02:54:30.305Z,16.73
2018-03-21T02:57:02.703Z,16.37
2018-03-21T02:59:32.893Z,16.77
2018-03-21T03:02:07.755Z,15.00
2018-03-21T03:04:38.823Z,14.73
2018-03-21T03:07:14.033Z,15.57
2018-03-21T03:09:48.243Z,16.50
2018-03-21T03:12:18.780Z,16.70
2018-03-21T03:14:53.866Z,17.37
2018-03-21T03:17:27.335Z,17.47
2018-03-21T03:20:00.350Z,16.60
2018-03-21T03:22:29.972Z,15.52
2018-03-21T03:25:00.533Z,15.57
2018-03-21T03:27:31.562Z,15.73
2018-03-21T03:30:09.840Z,15.02
2018-03-21T03:32:42.917Z,15.63
2018-03-21T03:35:15.169Z,14.97
2018-03-21T03:37:47.640Z,13.80
2018-03-21T03:40:17.794Z,13.83
2018-03-21T03:42:51.295Z,14.77
2018-03-21T03:45:21.901Z,14.53
2018-03-21T03:47:56.028Z,14.27
2018-03-21T03:50:26.537Z,14.67
2018-03-21T03:53:00.867Z,16.27
2018-03-21T03:55:36.409Z,15.27
2018-03-21T03:58:08.094Z,15.13
2018-03-21T04:00:37.996Z,16.87
2018-03-21T04:03:11.515Z,15.87
2018-03-21T04:05:48.089Z,15.63
2018-03-21T04:08:19.410Z,16.93
2018-03-21T04:10:54.530Z,16.40
2018-03-21T04:13:26.196Z,16.93
2018-03-21T04:15:57.447Z,17.93
2018-03-21T04:18:28.790Z,17.00
2018-03-21T04:21:14.566Z,18.48
2018-03-21T04:23:45.787Z,17.43
2018-03-21T04:26:20.776Z,17.60
2018-03-21T04:28:52.081Z,17.07
2018-03-21T04:31:27.485Z,16.97
2018-03-21T04:33:58.528Z,16.50
2018-03-21T04:36:31.017Z,17.30
2018-03-21T04:39:01.633Z,17.53
2018-03-21T04:41:32.567Z,18.20
2018-03-21T04:44:03.900Z,17.30
2018-03-21T04:46:38.576Z,17.83
2018-03-21T04:49:10.171Z,16.37
2018-03-21T04:51:43.595Z,16.07
2018-03-21T04:54:18.133Z,14.07
2018-03-21T04:56:51.897Z,14.48
2018-03-21T04:59:26.741Z,14.75
2018-03-21T05:02:00.820Z,14.83
2018-03-21T05:04:34.975Z,15.97
2018-03-21T05:07:05.816Z,15.87
2018-03-21T05:09:38.124Z,16.13
2018-03-21T05:12:10.799Z,16.60
2018-03-21T05:14:46.522Z,16.74
2018-03-21T05:17:24.884Z,15.07
2018-03-21T05:19:55.854Z,15.57
2018-03-21T05:22:27.751Z,16.37
2018-03-21T05:24:59.962Z,15.47
2018-03-21T05:27:33.961Z,15.17
2018-03-21T05:30:03.840Z,14.13
2018-03-21T05:32:35.305Z,14.17
2018-03-21T05:35:06.461Z,15.33
2018-03-21T05:37:38.994Z,14.90
2018-03-21T05:40:14.915Z,14.70
2018-03-21T05:42:51.730Z,15.33
2018-03-21T05:45:24.015Z,16.47
2018-03-21T05:47:56.437Z,15.38
2018-03-21T05:50:32.666Z,16.57
2018-03-21T05:53:04.629Z,16.80
2018-03-21T05:55:39.758Z,15.75
2018-03-21T05:58:19.079Z,14.43
2018-03-21T06:00:51.352Z,16.03
2018-03-21T06:03:23.853Z,16.47
2018-03-21T06:05:58.055Z,16.06
2018-03-21T06:08:30.302Z,16.35
2018-03-21T06:11:01.535Z,16.20
2018-03-21T06:13:33.563Z,16.33
2018-03-21T06:16:06.872Z,15.43
2018-03-21T06:18:41.375Z,15.93
2018-03-21T06:21:13.747Z,17.50
2018-03-21T06:23:48.270Z,16.83
2018-03-21T06:26:26.193Z,18.77
2018-03-21T06:28:58.344Z,17.90
2018-03-21T06:31:29.250Z,16.80
2018-03-21T06:34:00.073Z,16.67
2018-03-21T06:36:32.722Z,16.60
2018-03-21T06:39:08.329Z,17.20
2018-03-21T06:41:37.993Z,15.93
2018-03-21T06:44:11.609Z,16.47
2018-03-21T06:46:46.710Z,16.53
2018-03-21T06:49:21.627Z,16.40
2018-03-21T06:51:51.980Z,17.03
2018-03-21T06:54:24.402Z,16.33
2018-03-21T06:56:58.971Z,15.73
2018-03-21T06:59:32.560Z,16.87
2018-03-21T07:02:06.469Z,16.37
2018-03-21T07:04:37.350Z,17.17
2018-03-21T07:07:13.037Z,14.77
2018-03-21T07:09:43.976Z,15.03
2018-03-21T07:12:14.912Z,14.17
2018-03-21T07:15:04.738Z,15.40
2018-03-21T07:17:35.825Z,14.43
2018-03-21T07:20:07.530Z,14.77
2018-03-21T07:22:39.135Z,15.00
2018-03-21T07:25:17.360Z,13.90
2018-03-21T07:27:48.145Z,13.93
2018-03-21T07:30:19.361Z,14.17
2018-03-21T07:32:49.636Z,14.07
2018-03-21T07:35:21.885Z,13.60
2018-03-21T07:37:54.365Z,14.43
2018-03-21T07:40:31.441Z,13.73
2018-03-21T07:43:00.973Z,14.10
2018-03-21T07:45:32.405Z,14.50
2018-03-21T07:48:08.392Z,15.07
2018-03-21T07:50:40.840Z,13.75
2018-03-21T07:53:12.579Z,13.53
2018-03-21T07:55:43.449Z,14.07
2018-03-21T07:58:16.726Z,13.63
2018-03-21T08:00:49.171Z,12.33
2018-03-21T08:03:19.213Z,12.73
2018-03-21T08:05:51.850Z,11.55
2018-03-21T08:08:22.233Z,11.53
2018-03-21T08:10:57.447Z,12.47
2018-03-21T08:13:27.676Z,11.87
2018-03-21T08:16:06.323Z,11.80
2018-03-21T08:18:39.266Z,11.30
2018-03-21T08:21:12.344Z,9.97
2018-03-21T08:23:48.791Z,11.53
2018-03-21T08:26:22.622Z,11.00
2018-03-21T08:28:54.265Z,11.47
2018-03-21T08:31:45.069Z,10.80
2018-03-21T08:34:22.883Z,10.80
2018-03-21T08:36:53.124Z,10.77
2018-03-21T08:39:24.723Z,10.60
2018-03-21T08:41:55.875Z,11.50
2018-03-21T08:44:28.110Z,10.60
2018-03-21T08:47:02.267Z,10.07
2018-03-21T08:49:33.257Z,11.60
2018-03-21T08:52:04.117Z,9.70
2018-03-21T08:54:35.477Z,10.30
2018-03-21T08:57:15.825Z,10.30
2018-03-21T08:59:49.610Z,9.60
2018-03-21T09:02:20.051Z,10.70
2018-03-21T09:04:50.447Z,9.97
2018-03-21T09:07:23.252Z,9.20
2018-03-21T09:09:54.307Z,9.00
2018-03-21T09:12:23.842Z,9.37
2018-03-21T09:14:58.145Z,9.10
2018-03-21T09:17:28.036Z,9.37
2018-03-21T09:20:03.561Z,9.13
2018-03-21T09:22:33.987Z,8.50
2018-03-21T09:25:04.427Z,8.70
2018-03-21T09:27:36.206Z,8.57
2018-03-21T09:30:08.491Z,8.13
2018-03-21T09:32:41.695Z,7.17
2018-03-21T09:35:12.748Z,9.03
2018-03-21T09:37:43.670Z,8.30
2018-03-21T09:40:15.621Z,8.23
2018-03-21T09:42:56.389Z,8.10
2018-03-21T09:45:29.135Z,8.63
2018-03-21T09:47:59.159Z,8.37
2018-03-21T09:50:32.403Z,9.30
2018-03-21T09:53:03.047Z,8.40
2018-03-21T09:55:37.005Z,7.97
2018-03-21T09:58:08.952Z,8.43
2018-03-21T10:00:38.973Z,8.00
2018-03-21T10:03:09.959Z,7.70
2018-03-21T10:05:40.504Z,6.37
2018-03-21T10:08:12.121Z,7.60
2018-03-21T10:10:47.185Z,7.70
2018-03-21T10:13:19.175Z,7.30
2018-03-21T10:15:48.954Z,7.20
2018-03-21T10:18:19.882Z,8.20
2018-03-21T10:20:52.654Z,6.90
2018-03-21T10:23:22.445Z,7.40
2018-03-21T10:25:56.378Z,7.83
2018-03-21T10:28:28.266Z,7.53
2018-03-21T10:30:59.648Z,8.53
2018-03-21T10:33:29.870Z,7.40
2018-03-21T10:36:01.618Z,8.17
2018-03-21T10:38:31.361Z,8.10
2018-03-21T10:41:04.005Z,8.40
2018-03-21T10:43:35.679Z,8.37
2018-03-21T10:46:07.125Z,8.17
2018-03-21T10:48:37.106Z,9.00
2018-03-21T10:51:07.195Z,7.90
2018-03-21T10:53:46.362Z,7.67
2018-03-21T10:56:19.284Z,8.70
2018-03-21T10:58:50.425Z,7.72
2018-03-21T11:01:28.112Z,8.17
2018-03-21T11:03:58.919Z,8.13
2018-03-21T11:06:29.742Z,7.82
2018-03-21T11:09:01.804Z,8.25
2018-03-21T11:11:38.772Z,8.05
2018-03-21T11:14:08.846Z,8.03
2018-03-21T11:16:41.846Z,8.30
2018-03-21T11:19:13.622Z,8.80
2018-03-21T11:21:47.394Z,8.43
2018-03-21T11:24:21.902Z,8.50
2018-03-21T11:26:53.150Z,8.03
2018-03-21T11:29:24.026Z,8.23
2018-03-21T11:31:59.129Z,8.40
2018-03-21T11:34:32.060Z,8.27
2018-03-21T11:37:05.890Z,7.03
2018-03-21T11:39:37.043Z,7.40
2018-03-21T11:42:07.353Z,7.85
2018-03-21T11:44:37.923Z,8.10
2018-03-21T11:47:11.002Z,8.63
2018-03-21T11:49:41.830Z,8.10
2018-03-21T11:52:13.561Z,8.27
2018-03-21T11:54:49.415Z,8.93
2018-03-21T11:57:20.728Z,8.57
2018-03-21T11:59:51.479Z,7.70
2018-03-21T12:02:23.606Z,8.63
2018-03-21T12:05:06.037Z,7.37
2018-03-21T12:07:41.096Z,8.37
2018-03-21T12:10:12.635Z,8.37
2018-03-21T12:12:45.873Z,8.10
2018-03-21T12:15:17.884Z,8.52
2018-03-21T12:17:48.823Z,9.77
2018-03-21T12:20:19.094Z,8.77
2018-03-21T12:22:49.648Z,8.73
2018-03-21T12:25:22.842Z,8.23
2018-03-21T12:27:58.781Z,8.40
2018-03-21T12:30:31.076Z,9.37
2018-03-21T12:33:06.066Z,9.07
2018-03-21T12:35:41.135Z,8.97
2018-03-21T12:38:11.313Z,9.30
2018-03-21T12:40:41.725Z,8.37
2018-03-21T12:43:11.803Z,8.67
2018-03-21T12:45:42.965Z,7.73
2018-03-21T12:48:14.410Z,8.80
2018-03-21T12:50:47.373Z,8.47
2018-03-21T12:53:19.756Z,7.70
2018-03-21T12:55:51.502Z,8.37
2018-03-21T12:58:27.730Z,7.90
2018-03-21T13:01:06.279Z,8.50
2018-03-21T13:03:36.141Z,7.47
2018-03-21T13:06:10.539Z,6.93
2018-03-21T13:08:41.197Z,6.70
2018-03-21T13:14:16.453Z,7.23
2018-03-21T13:16:48.687Z,7.67
2018-03-21T13:19:22.271Z,6.37
2018-03-21T13:21:54.091Z,6.47
2018-03-21T13:24:28.007Z,6.37
2018-03-21T13:27:00.517Z,6.60
2018-03-21T13:29:30.430Z,6.83
2018-03-21T13:32:00.091Z,6.50
2018-03-21T13:34:31.064Z,6.20
2018-03-21T13:37:03.101Z,6.10
2018-03-21T13:39:34.923Z,5.65
2018-03-21T13:42:09.861Z,5.60
2018-03-21T13:44:43.174Z,4.80
2018-03-21T13:47:18.947Z,6.80
2018-03-21T13:49:48.297Z,6.27
2018-03-21T13:52:18.360Z,5.47
2018-03-21T13:54:47.692Z,5.27
2018-03-21T13:57:17.964Z,5.53
2018-03-21T13:59:47.267Z,5.35
2018-03-21T14:02:16.612Z,5.17
2018-03-21T14:04:46.019Z,4.80
2018-03-21T14:07:15.587Z,5.03
2018-03-21T14:09:45.303Z,4.50
2018-03-21T14:12:14.663Z,5.28
2018-03-21T14:14:44.754Z,5.80
2018-03-21T14:17:14.165Z,4.87
2018-03-21T14:19:43.539Z,5.30
2018-03-21T14:22:13.054Z,4.97
2018-03-21T14:24:42.337Z,4.90
2018-03-21T14:27:11.976Z,4.70
2018-03-21T14:29:41.308Z,4.77
2018-03-21T14:32:11.721Z,5.60
2018-03-21T14:34:41.151Z,5.57
2018-03-21T14:37:11.692Z,5.97
2018-03-21T14:39:41.178Z,5.93
2018-03-21T14:42:11.263Z,5.97
2018-03-21T14:44:40.572Z,6.03
2018-03-21T14:47:09.907Z,5.90
2018-03-21T14:49:39.234Z,6.40
2018-03-21T14:52:09.155Z,5.77
2018-03-21T14:54:38.481Z,5.28
2018-03-21T14:57:08.103Z,6.07
2018-03-21T14:59:37.606Z,6.07
2018-03-21T15:02:07.081Z,6.13
2018-03-21T15:04:36.402Z,6.20
2018-03-21T15:07:05.705Z,6.18
2018-03-21T15:09:35.170Z,6.37
2018-03-21T15:12:04.456Z,5.93
2018-03-21T15:14:33.798Z,5.82
2018-03-21T15:17:06.354Z,6.10
2018-03-21T15:19:37.824Z,6.93
2018-03-21T15:22:08.636Z,6.60
2018-03-21T15:24:43.499Z,6.23
2018-03-21T15:27:14.796Z,6.67
2018-03-21T15:29:44.386Z,6.30
2018-03-21T15:32:14.201Z,6.47
2018-03-21T15:34:43.519Z,6.90
2018-03-21T15:37:12.836Z,6.07
2018-03-21T15:39:42.294Z,5.90
2018-03-21T15:42:12.350Z,5.70
2018-03-21T15:44:43.021Z,6.23
2018-03-21T15:47:12.309Z,6.77
2018-03-21T15:49:41.596Z,6.87
2018-03-21T15:52:11.030Z,6.40
2018-03-21T15:54:40.357Z,6.90
2018-03-21T15:57:09.625Z,6.93
2018-03-21T15:59:39.095Z,6.55
2018-03-21T16:02:08.395Z,6.70
2018-03-21T16:04:38.469Z,6.63
2018-03-21T16:07:07.820Z,7.27
2018-03-21T16:09:37.148Z,7.17
2018-03-21T16:12:06.424Z,7.53
2018-03-21T16:14:35.734Z,7.47
2018-03-21T16:17:05.743Z,7.20
2018-03-21T16:19:35.215Z,6.90
2018-03-21T16:22:04.815Z,7.23
2018-03-21T16:24:34.365Z,7.07
2018-03-21T16:27:04.372Z,7.33
2018-03-21T16:29:34.561Z,7.60
2018-03-21T16:32:04.423Z,8.20
2018-03-21T16:34:34.438Z,7.50
2018-03-21T16:37:04.531Z,7.00
2018-03-21T16:39:34.616Z,7.40
2018-03-21T16:42:05.760Z,8.07
2018-03-21T16:44:48.591Z,7.50
2018-03-21T16:47:19.621Z,7.97
2018-03-21T16:49:49.378Z,8.23
2018-03-21T16:52:19.429Z,8.00
2018-03-21T16:54:48.727Z,8.30
2018-03-21T16:57:18.364Z,9.10
2018-03-21T16:59:47.621Z,7.40
2018-03-21T17:02:16.961Z,8.67
2018-03-21T17:04:46.339Z,9.03
2018-03-21T17:07:17.707Z,9.00
2018-03-21T17:09:47.032Z,8.93
2018-03-21T17:12:16.467Z,9.63
2018-03-21T17:14:57.350Z,9.63
2018-03-21T17:17:27.408Z,10.27
2018-03-21T17:19:58.199Z,9.40
2018-03-21T17:22:27.577Z,9.97
2018-03-21T17:24:57.622Z,9.50
2018-03-21T17:27:26.957Z,9.10
2018-03-21T17:29:56.602Z,9.50
2018-03-21T17:32:27.931Z,10.40
2018-03-21T17:35:00.333Z,9.07
2018-03-21T17:37:31.288Z,9.10
2018-03-21T17:40:05.170Z,9.73
2018-03-21T17:42:38.811Z,10.53
2018-03-21T17:45:10.919Z,10.90
2018-03-21T17:47:42.238Z,10.70
2018-03-21T17:50:12.367Z,9.53
2018-03-21T17:52:48.027Z,10.33
2018-03-21T17:55:29.373Z,8.83
2018-03-21T17:58:00.637Z,9.40
2018-03-21T18:00:31.503Z,8.83
2018-03-21T18:03:02.251Z,8.40
2018-03-21T18:05:33.357Z,7.97
2018-03-21T18:08:03.487Z,7.53
2018-03-21T18:10:34.925Z,7.63
2018-03-21T18:15:48.568Z,7.33
2018-03-21T18:18:19.751Z,7.73
2018-03-21T18:20:51.768Z,7.53
2018-03-21T18:23:21.956Z,7.90
2018-03-21T18:25:52.288Z,7.90
2018-03-21T18:28:23.292Z,6.97
2018-03-21T18:30:53.610Z,7.47
2018-03-21T18:33:24.022Z,7.23
2018-03-21T18:35:55.037Z,7.60
2018-03-21T18:38:26.011Z,8.30
2018-03-21T18:40:57.468Z,8.17
2018-03-21T18:43:30.137Z,8.00
2018-03-21T18:46:04.660Z,9.20
2018-03-21T18:48:36.064Z,9.68
2018-03-21T18:51:06.773Z,9.03
2018-03-21T18:53:40.718Z,9.57
2018-03-21T18:56:11.863Z,9.50
2018-03-21T18:58:43.729Z,9.63
2018-03-21T19:01:13.380Z,10.00
2018-03-21T19:03:44.899Z,9.80
2018-03-21T19:06:15.459Z,11.10
2018-03-21T19:08:45.400Z,10.10
2018-03-21T19:11:17.679Z,11.27
2018-03-21T19:13:52.856Z,10.13
2018-03-21T19:16:23.166Z,11.83
2018-03-21T19:18:53.937Z,11.87
2018-03-21T19:21:27.724Z,11.93
2018-03-21T19:23:59.566Z,14.07
2018-03-21T19:26:30.404Z,14.80
2018-03-21T19:29:03.647Z,13.70
2018-03-21T19:31:35.606Z,15.37
2018-03-21T19:34:05.695Z,14.80
2018-03-21T19:36:35.751Z,14.52
2018-03-21T19:39:08.216Z,14.27
2018-03-21T19:41:39.154Z,13.60
2018-03-21T19:44:10.613Z,16.23
2018-03-21T19:46:42.705Z,13.63
2018-03-21T19:49:15.499Z,13.27
2018-03-21T19:52:05.411Z,14.60
2018-03-21T19:54:37.819Z,13.93
2018-03-21T19:57:08.838Z,12.93
2018-03-21T19:59:41.450Z,13.80
2018-03-21T20:02:13.454Z,14.40
2018-03-21T20:04:43.938Z,13.93
2018-03-21T20:07:14.930Z,13.23
2018-03-21T20:09:45.474Z,14.13
2018-03-21T20:12:16.631Z,14.10
2018-03-21T20:14:47.241Z,15.07
2018-03-21T20:17:18.486Z,15.00
2018-03-21T20:19:56.430Z,14.57
2018-03-21T20:22:31.115Z,14.37
2018-03-21T20:25:04.567Z,14.40
2018-03-21T20:27:36.920Z,15.73
2018-03-21T20:30:10.144Z,14.84
2018-03-21T20:32:50.313Z,15.02
2018-03-21T20:35:21.226Z,14.60
2018-03-21T20:37:53.724Z,14.27
2018-03-21T20:40:33.954Z,16.25
2018-03-21T20:43:07.619Z,15.67
2018-03-21T20:45:39.176Z,15.80
2018-03-21T20:48:12.404Z,15.40
2018-03-21T20:50:42.912Z,15.27
2018-03-21T20:53:12.451Z,16.63
2018-03-21T20:55:46.501Z,15.23
2018-03-21T20:58:17.287Z,15.40
2018-03-21T21:00:51.341Z,15.53
2018-03-21T21:03:24.754Z,15.00
2018-03-21T21:05:55.399Z,14.57
2018-03-21T21:08:28.708Z,15.03
2018-03-21T21:10:59.811Z,15.07
2018-03-21T21:13:31.751Z,14.43
2018-03-21T21:16:02.454Z,14.60
2018-03-21T21:18:35.354Z,14.48
2018-03-21T21:21:06.538Z,13.97
2018-03-21T21:23:39.416Z,12.75
2018-03-21T21:26:13.716Z,13.03
2018-03-21T21:28:45.290Z,12.37
2018-03-21T21:31:17.295Z,11.60
2018-03-21T21:33:49.029Z,12.00
2018-03-21T21:36:24.306Z,10.15
2018-03-21T21:38:55.150Z,10.18
2018-03-21T21:41:25.905Z,11.37
2018-03-21T21:43:58.890Z,9.53
2018-03-21T21:46:32.452Z,10.33
2018-03-21T21:49:06.301Z,10.37
2018-03-21T21:51:37.954Z,10.57
2018-03-21T21:54:09.212Z,9.83
2018-03-21T21:56:42.262Z,10.10
2018-03-21T21:59:16.596Z,10.43
2018-03-21T22:01:47.859Z,10.32
2018-03-21T22:04:22.894Z,10.20
2018-03-21T22:06:57.094Z,10.37
2018-03-21T22:09:30.324Z,11.17
2018-03-21T22:12:01.038Z,10.00
2018-03-21T22:14:32.599Z,9.75
2018-03-21T22:17:02.875Z,10.87
2018-03-21T22:19:33.849Z,9.83
2018-03-21T22:22:04.323Z,10.57
2018-03-21T22:24:35.175Z,10.40
2018-03-21T22:27:09.741Z,9.87
2018-03-21T22:29:39.810Z,10.47
2018-03-21T22:32:11.764Z,9.83
2018-03-21T22:34:44.314Z,9.37
2018-03-21T22:37:15.794Z,9.80
2018-03-21T22:39:47.119Z,8.50
2018-03-21T22:42:17.960Z,9.02
2018-03-21T22:44:47.920Z,7.37
2018-03-21T22:47:18.167Z,7.73
2018-03-21T22:49:50.084Z,8.53
2018-03-21T22:52:23.415Z,6.53
2018-03-21T22:54:56.565Z,7.07
2018-03-21T22:57:28.640Z,8.30
2018-03-21T23:00:00.364Z,8.02
2018-03-21T23:02:33.236Z,8.40
2018-03-21T23:05:06.045Z,8.20
2018-03-21T23:07:36.436Z,7.77
2018-03-21T23:10:09.359Z,8.10
2018-03-21T23:12:40.287Z,8.20
2018-03-21T23:15:12.666Z,8.10
2018-03-21T23:17:46.003Z,8.10
2018-03-21T23:20:19.195Z,8.20
2018-03-21T23:22:51.271Z,8.13
2018-03-21T23:25:21.608Z,9.13
2018-03-21T23:27:57.484Z,8.83
2018-03-21T23:30:28.606Z,9.60
2018-03-21T23:32:59.746Z,8.23
2018-03-21T23:35:30.201Z,9.23
2018-03-21T23:38:01.160Z,11.00
2018-03-21T23:40:35.545Z,12.73
2018-03-21T23:43:07.011Z,8.30
2018-03-21T23:45:39.745Z,8.23
2018-03-21T23:48:10.526Z,8.05
2018-03-21T23:50:41.630Z,8.80
2018-03-21T23:53:14.498Z,7.80
2018-03-21T23:55:44.616Z,7.85
2018-03-21T23:58:15.110Z,8.00
